sensor_id;sensor_type;location;lat;lon;timestamp;P1;durP1;ratioP1;P2;durP2;ratioP2
60038;SDS011;45916;52.734;6.544;2023-12-20T00:01:05;10.43;;;3.38;;
60038;SDS011;45916;52.734;6.544;2023-12-20T00:03:31;10.95;;;3.17;;
60038;SDS011;45916;52.734;6.544;2023-12-20T00:05:56;14.30;;;4.03;;
60038;SDS011;45916;52.734;6.544;2023-12-20T00:08:22;16.38;;;4.10;;
60038;SDS011;45916;52.734;6.544;2023-12-20T00:10:48;12.88;;;3.90;;
60038;SDS011;45916;52.734;6.544;2023-12-20T00:13:14;8.90;;;3.35;;
60038;SDS011;45916;52.734;6.544;2023-12-20T00:15:39;11.25;;;3.28;;
60038;SDS011;45916;52.734;6.544;2023-12-20T00:18:05;10.70;;;3.33;;
60038;SDS011;45916;52.734;6.544;2023-12-20T00:20:31;12.32;;;4.13;;
60038;SDS011;45916;52.734;6.544;2023-12-20T00:22:57;14.98;;;3.58;;
60038;SDS011;45916;52.734;6.544;2023-12-20T00:25:23;10.30;;;3.60;;
60038;SDS011;45916;52.734;6.544;2023-12-20T00:27:49;11.23;;;3.47;;
60038;SDS011;45916;52.734;6.544;2023-12-20T00:30:15;13.73;;;4.15;;
60038;SDS011;45916;52.734;6.544;2023-12-20T00:32:41;9.52;;;3.83;;
60038;SDS011;45916;52.734;6.544;2023-12-20T00:35:14;8.63;;;3.47;;
60038;SDS011;45916;52.734;6.544;2023-12-20T00:37:40;10.13;;;3.15;;
60038;SDS011;45916;52.734;6.544;2023-12-20T00:40:06;9.65;;;3.33;;
60038;SDS011;45916;52.734;6.544;2023-12-20T00:42:32;11.07;;;3.40;;
60038;SDS011;45916;52.734;6.544;2023-12-20T00:44:59;11.75;;;2.90;;
60038;SDS011;45916;52.734;6.544;2023-12-20T00:47:25;13.00;;;3.72;;
60038;SDS011;45916;52.734;6.544;2023-12-20T00:49:51;10.13;;;3.13;;
60038;SDS011;45916;52.734;6.544;2023-12-20T00:52:17;14.02;;;3.88;;
60038;SDS011;45916;52.734;6.544;2023-12-20T00:54:43;10.50;;;3.40;;
60038;SDS011;45916;52.734;6.544;2023-12-20T00:57:09;14.73;;;3.65;;
60038;SDS011;45916;52.734;6.544;2023-12-20T00:59:35;12.63;;;3.35;;
60038;SDS011;45916;52.734;6.544;2023-12-20T01:02:01;10.80;;;3.42;;
60038;SDS011;45916;52.734;6.544;2023-12-20T01:04:27;12.95;;;4.30;;
60038;SDS011;45916;52.734;6.544;2023-12-20T01:06:53;13.70;;;3.60;;
60038;SDS011;45916;52.734;6.544;2023-12-20T01:09:19;12.27;;;4.57;;
60038;SDS011;45916;52.734;6.544;2023-12-20T01:11:48;8.95;;;3.30;;
60038;SDS011;45916;52.734;6.544;2023-12-20T01:14:14;13.55;;;3.97;;
60038;SDS011;45916;52.734;6.544;2023-12-20T01:16:40;12.23;;;5.07;;
60038;SDS011;45916;52.734;6.544;2023-12-20T01:19:05;11.55;;;4.43;;
60038;SDS011;45916;52.734;6.544;2023-12-20T01:21:31;16.48;;;4.72;;
60038;SDS011;45916;52.734;6.544;2023-12-20T01:23:57;11.13;;;3.80;;
60038;SDS011;45916;52.734;6.544;2023-12-20T01:26:23;11.77;;;3.70;;
60038;SDS011;45916;52.734;6.544;2023-12-20T01:28:49;13.45;;;4.10;;
60038;SDS011;45916;52.734;6.544;2023-12-20T01:31:14;14.13;;;4.07;;
60038;SDS011;45916;52.734;6.544;2023-12-20T01:33:40;16.55;;;5.07;;
60038;SDS011;45916;52.734;6.544;2023-12-20T01:36:06;13.65;;;4.45;;
60038;SDS011;45916;52.734;6.544;2023-12-20T01:38:32;14.93;;;4.25;;
60038;SDS011;45916;52.734;6.544;2023-12-20T01:40:57;12.10;;;3.83;;
60038;SDS011;45916;52.734;6.544;2023-12-20T01:43:24;12.77;;;4.32;;
60038;SDS011;45916;52.734;6.544;2023-12-20T01:45:50;12.43;;;4.05;;
60038;SDS011;45916;52.734;6.544;2023-12-20T01:48:16;12.70;;;3.55;;
60038;SDS011;45916;52.734;6.544;2023-12-20T01:50:43;13.45;;;3.72;;
60038;SDS011;45916;52.734;6.544;2023-12-20T01:53:10;12.57;;;4.05;;
60038;SDS011;45916;52.734;6.544;2023-12-20T01:55:38;10.90;;;3.72;;
60038;SDS011;45916;52.734;6.544;2023-12-20T01:58:05;13.27;;;4.13;;
60038;SDS011;45916;52.734;6.544;2023-12-20T02:00:40;14.13;;;3.95;;
60038;SDS011;45916;52.734;6.544;2023-12-20T02:03:06;17.58;;;4.38;;
60038;SDS011;45916;52.734;6.544;2023-12-20T02:05:32;14.57;;;4.28;;
60038;SDS011;45916;52.734;6.544;2023-12-20T02:08:00;9.50;;;3.83;;
60038;SDS011;45916;52.734;6.544;2023-12-20T02:10:26;17.80;;;3.95;;
60038;SDS011;45916;52.734;6.544;2023-12-20T02:12:54;15.73;;;4.35;;
60038;SDS011;45916;52.734;6.544;2023-12-20T02:15:20;16.83;;;4.60;;
60038;SDS011;45916;52.734;6.544;2023-12-20T02:17:46;16.23;;;4.50;;
60038;SDS011;45916;52.734;6.544;2023-12-20T02:20:13;16.42;;;3.85;;
60038;SDS011;45916;52.734;6.544;2023-12-20T02:22:39;17.50;;;4.60;;
60038;SDS011;45916;52.734;6.544;2023-12-20T02:25:05;11.52;;;4.97;;
60038;SDS011;45916;52.734;6.544;2023-12-20T02:27:31;16.45;;;4.00;;
60038;SDS011;45916;52.734;6.544;2023-12-20T02:29:57;11.02;;;3.10;;
60038;SDS011;45916;52.734;6.544;2023-12-20T02:32:24;14.52;;;3.72;;
60038;SDS011;45916;52.734;6.544;2023-12-20T02:34:54;10.77;;;3.70;;
60038;SDS011;45916;52.734;6.544;2023-12-20T02:37:20;18.90;;;4.53;;
60038;SDS011;45916;52.734;6.544;2023-12-20T02:39:46;12.40;;;3.38;;
60038;SDS011;45916;52.734;6.544;2023-12-20T02:42:12;16.45;;;4.03;;
60038;SDS011;45916;52.734;6.544;2023-12-20T02:44:38;10.32;;;3.38;;
60038;SDS011;45916;52.734;6.544;2023-12-20T02:47:04;16.00;;;3.85;;
60038;SDS011;45916;52.734;6.544;2023-12-20T02:49:30;15.40;;;4.00;;
60038;SDS011;45916;52.734;6.544;2023-12-20T02:51:56;15.02;;;4.13;;
60038;SDS011;45916;52.734;6.544;2023-12-20T02:54:22;11.65;;;3.90;;
60038;SDS011;45916;52.734;6.544;2023-12-20T02:56:48;11.70;;;3.78;;
60038;SDS011;45916;52.734;6.544;2023-12-20T02:59:14;12.07;;;4.38;;
60038;SDS011;45916;52.734;6.544;2023-12-20T03:01:44;16.98;;;4.88;;
60038;SDS011;45916;52.734;6.544;2023-12-20T03:04:11;20.65;;;5.78;;
60038;SDS011;45916;52.734;6.544;2023-12-20T03:06:38;13.75;;;5.45;;
60038;SDS011;45916;52.734;6.544;2023-12-20T03:09:04;18.40;;;4.85;;
60038;SDS011;45916;52.734;6.544;2023-12-20T03:11:32;12.80;;;4.55;;
60038;SDS011;45916;52.734;6.544;2023-12-20T03:13:58;16.02;;;4.22;;
60038;SDS011;45916;52.734;6.544;2023-12-20T03:16:24;14.50;;;4.88;;
60038;SDS011;45916;52.734;6.544;2023-12-20T03:18:49;15.93;;;4.88;;
60038;SDS011;45916;52.734;6.544;2023-12-20T03:21:15;17.40;;;5.57;;
60038;SDS011;45916;52.734;6.544;2023-12-20T03:23:41;15.25;;;4.57;;
60038;SDS011;45916;52.734;6.544;2023-12-20T03:26:07;21.83;;;5.65;;
60038;SDS011;45916;52.734;6.544;2023-12-20T03:28:33;16.25;;;5.05;;
60038;SDS011;45916;52.734;6.544;2023-12-20T03:30:59;19.50;;;5.43;;
60038;SDS011;45916;52.734;6.544;2023-12-20T03:33:25;16.63;;;6.50;;
60038;SDS011;45916;52.734;6.544;2023-12-20T03:35:51;17.75;;;6.85;;
60038;SDS011;45916;52.734;6.544;2023-12-20T03:38:17;20.75;;;5.13;;
60038;SDS011;45916;52.734;6.544;2023-12-20T03:40:42;18.23;;;5.35;;
60038;SDS011;45916;52.734;6.544;2023-12-20T03:43:08;25.60;;;6.13;;
60038;SDS011;45916;52.734;6.544;2023-12-20T03:45:34;18.08;;;5.68;;
60038;SDS011;45916;52.734;6.544;2023-12-20T03:48:03;21.75;;;5.47;;
60038;SDS011;45916;52.734;6.544;2023-12-20T03:50:29;20.60;;;5.28;;
60038;SDS011;45916;52.734;6.544;2023-12-20T03:52:55;19.10;;;5.07;;
60038;SDS011;45916;52.734;6.544;2023-12-20T03:55:21;18.63;;;5.40;;
60038;SDS011;45916;52.734;6.544;2023-12-20T03:57:46;18.40;;;5.10;;
60038;SDS011;45916;52.734;6.544;2023-12-20T04:00:12;19.77;;;5.75;;
60038;SDS011;45916;52.734;6.544;2023-12-20T04:02:39;19.30;;;5.72;;
60038;SDS011;45916;52.734;6.544;2023-12-20T04:05:05;21.90;;;6.00;;
60038;SDS011;45916;52.734;6.544;2023-12-20T04:07:32;26.08;;;5.82;;
60038;SDS011;45916;52.734;6.544;2023-12-20T04:09:59;18.75;;;6.18;;
60038;SDS011;45916;52.734;6.544;2023-12-20T04:12:26;18.48;;;7.25;;
60038;SDS011;45916;52.734;6.544;2023-12-20T04:14:53;18.52;;;6.13;;
60038;SDS011;45916;52.734;6.544;2023-12-20T04:17:19;19.80;;;6.40;;
60038;SDS011;45916;52.734;6.544;2023-12-20T04:19:45;20.27;;;5.57;;
60038;SDS011;45916;52.734;6.544;2023-12-20T04:22:11;17.50;;;6.55;;
60038;SDS011;45916;52.734;6.544;2023-12-20T04:24:37;21.23;;;6.28;;
60038;SDS011;45916;52.734;6.544;2023-12-20T04:27:04;21.77;;;6.43;;
60038;SDS011;45916;52.734;6.544;2023-12-20T04:29:30;15.90;;;5.57;;
60038;SDS011;45916;52.734;6.544;2023-12-20T04:31:55;22.25;;;5.45;;
60038;SDS011;45916;52.734;6.544;2023-12-20T04:34:22;17.92;;;6.65;;
60038;SDS011;45916;52.734;6.544;2023-12-20T04:36:52;19.85;;;5.07;;
60038;SDS011;45916;52.734;6.544;2023-12-20T04:39:19;19.70;;;6.00;;
60038;SDS011;45916;52.734;6.544;2023-12-20T04:44:14;17.55;;;6.90;;
60038;SDS011;45916;52.734;6.544;2023-12-20T04:46:40;20.42;;;6.22;;
60038;SDS011;45916;52.734;6.544;2023-12-20T04:49:05;19.20;;;6.20;;
60038;SDS011;45916;52.734;6.544;2023-12-20T04:51:34;23.27;;;6.93;;
60038;SDS011;45916;52.734;6.544;2023-12-20T04:54:00;19.17;;;6.07;;
60038;SDS011;45916;52.734;6.544;2023-12-20T04:56:27;21.42;;;7.07;;
60038;SDS011;45916;52.734;6.544;2023-12-20T04:58:52;19.65;;;5.97;;
60038;SDS011;45916;52.734;6.544;2023-12-20T05:01:18;19.00;;;5.40;;
60038;SDS011;45916;52.734;6.544;2023-12-20T05:03:44;24.58;;;6.55;;
60038;SDS011;45916;52.734;6.544;2023-12-20T05:06:10;18.13;;;5.80;;
60038;SDS011;45916;52.734;6.544;2023-12-20T05:08:36;20.40;;;7.22;;
60038;SDS011;45916;52.734;6.544;2023-12-20T05:11:03;16.67;;;6.63;;
60038;SDS011;45916;52.734;6.544;2023-12-20T05:13:32;16.20;;;6.38;;
60038;SDS011;45916;52.734;6.544;2023-12-20T05:15:57;14.82;;;5.88;;
60038;SDS011;45916;52.734;6.544;2023-12-20T05:18:23;14.07;;;5.43;;
60038;SDS011;45916;52.734;6.544;2023-12-20T05:20:49;20.00;;;7.75;;
60038;SDS011;45916;52.734;6.544;2023-12-20T05:23:16;19.23;;;6.47;;
60038;SDS011;45916;52.734;6.544;2023-12-20T05:25:42;20.75;;;5.95;;
60038;SDS011;45916;52.734;6.544;2023-12-20T05:28:08;21.85;;;6.45;;
60038;SDS011;45916;52.734;6.544;2023-12-20T05:30:34;19.58;;;7.75;;
60038;SDS011;45916;52.734;6.544;2023-12-20T05:32:59;14.73;;;5.25;;
60038;SDS011;45916;52.734;6.544;2023-12-20T05:35:25;22.35;;;5.53;;
60038;SDS011;45916;52.734;6.544;2023-12-20T05:37:51;20.73;;;5.93;;
60038;SDS011;45916;52.734;6.544;2023-12-20T05:40:17;16.88;;;5.63;;
60038;SDS011;45916;52.734;6.544;2023-12-20T05:42:43;17.00;;;5.80;;
60038;SDS011;45916;52.734;6.544;2023-12-20T05:45:09;18.55;;;6.07;;
60038;SDS011;45916;52.734;6.544;2023-12-20T05:47:36;22.05;;;6.82;;
60038;SDS011;45916;52.734;6.544;2023-12-20T05:50:01;15.60;;;5.15;;
60038;SDS011;45916;52.734;6.544;2023-12-20T05:52:27;16.73;;;5.88;;
60038;SDS011;45916;52.734;6.544;2023-12-20T05:54:53;16.33;;;6.03;;
60038;SDS011;45916;52.734;6.544;2023-12-20T05:57:19;16.88;;;6.07;;
60038;SDS011;45916;52.734;6.544;2023-12-20T05:59:45;22.13;;;6.38;;
60038;SDS011;45916;52.734;6.544;2023-12-20T06:02:10;17.17;;;5.18;;
60038;SDS011;45916;52.734;6.544;2023-12-20T06:04:36;19.13;;;6.50;;
60038;SDS011;45916;52.734;6.544;2023-12-20T06:07:02;15.85;;;5.78;;
60038;SDS011;45916;52.734;6.544;2023-12-20T06:09:28;21.15;;;5.65;;
60038;SDS011;45916;52.734;6.544;2023-12-20T06:11:54;19.80;;;6.35;;
60038;SDS011;45916;52.734;6.544;2023-12-20T06:14:20;16.70;;;6.50;;
60038;SDS011;45916;52.734;6.544;2023-12-20T06:16:46;16.33;;;4.57;;
60038;SDS011;45916;52.734;6.544;2023-12-20T06:19:12;17.98;;;6.82;;
60038;SDS011;45916;52.734;6.544;2023-12-20T06:21:38;20.65;;;6.53;;
60038;SDS011;45916;52.734;6.544;2023-12-20T06:24:04;17.02;;;5.60;;
60038;SDS011;45916;52.734;6.544;2023-12-20T06:26:30;19.73;;;6.38;;
60038;SDS011;45916;52.734;6.544;2023-12-20T06:28:56;21.55;;;5.15;;
60038;SDS011;45916;52.734;6.544;2023-12-20T06:31:22;19.40;;;5.60;;
60038;SDS011;45916;52.734;6.544;2023-12-20T06:33:47;16.55;;;5.85;;
60038;SDS011;45916;52.734;6.544;2023-12-20T06:36:22;16.20;;;5.25;;
60038;SDS011;45916;52.734;6.544;2023-12-20T06:38:51;21.48;;;5.50;;
60038;SDS011;45916;52.734;6.544;2023-12-20T06:41:17;13.38;;;4.82;;
60038;SDS011;45916;52.734;6.544;2023-12-20T06:43:43;19.13;;;5.70;;
60038;SDS011;45916;52.734;6.544;2023-12-20T06:46:09;16.00;;;5.93;;
60038;SDS011;45916;52.734;6.544;2023-12-20T06:48:35;16.35;;;5.55;;
60038;SDS011;45916;52.734;6.544;2023-12-20T06:51:01;16.65;;;6.03;;
60038;SDS011;45916;52.734;6.544;2023-12-20T06:53:27;20.75;;;6.63;;
60038;SDS011;45916;52.734;6.544;2023-12-20T06:55:53;18.40;;;6.82;;
60038;SDS011;45916;52.734;6.544;2023-12-20T06:58:21;17.17;;;6.13;;
60038;SDS011;45916;52.734;6.544;2023-12-20T07:00:47;20.20;;;7.25;;
60038;SDS011;45916;52.734;6.544;2023-12-20T07:03:13;21.75;;;6.03;;
60038;SDS011;45916;52.734;6.544;2023-12-20T07:05:39;14.05;;;5.72;;
60038;SDS011;45916;52.734;6.544;2023-12-20T07:08:06;21.38;;;6.20;;
60038;SDS011;45916;52.734;6.544;2023-12-20T07:10:32;17.55;;;6.43;;
60038;SDS011;45916;52.734;6.544;2023-12-20T07:12:58;16.67;;;5.50;;
60038;SDS011;45916;52.734;6.544;2023-12-20T07:15:24;16.25;;;4.82;;
60038;SDS011;45916;52.734;6.544;2023-12-20T07:17:50;21.17;;;5.88;;
60038;SDS011;45916;52.734;6.544;2023-12-20T07:20:16;17.83;;;6.05;;
60038;SDS011;45916;52.734;6.544;2023-12-20T07:22:43;17.38;;;5.65;;
60038;SDS011;45916;52.734;6.544;2023-12-20T07:25:08;18.95;;;5.65;;
60038;SDS011;45916;52.734;6.544;2023-12-20T07:27:35;20.08;;;6.32;;
60038;SDS011;45916;52.734;6.544;2023-12-20T07:30:01;13.32;;;5.05;;
60038;SDS011;45916;52.734;6.544;2023-12-20T07:32:27;25.60;;;6.88;;
60038;SDS011;45916;52.734;6.544;2023-12-20T07:34:53;20.63;;;6.30;;
60038;SDS011;45916;52.734;6.544;2023-12-20T07:37:19;18.70;;;5.70;;
60038;SDS011;45916;52.734;6.544;2023-12-20T07:39:46;16.90;;;5.85;;
60038;SDS011;45916;52.734;6.544;2023-12-20T07:42:12;15.75;;;6.25;;
60038;SDS011;45916;52.734;6.544;2023-12-20T07:44:37;16.25;;;5.47;;
60038;SDS011;45916;52.734;6.544;2023-12-20T07:47:06;19.38;;;5.72;;
60038;SDS011;45916;52.734;6.544;2023-12-20T07:49:32;19.70;;;6.57;;
60038;SDS011;45916;52.734;6.544;2023-12-20T07:51:58;17.08;;;5.57;;
60038;SDS011;45916;52.734;6.544;2023-12-20T07:54:24;22.58;;;7.90;;
60038;SDS011;45916;52.734;6.544;2023-12-20T07:56:50;19.40;;;7.10;;
60038;SDS011;45916;52.734;6.544;2023-12-20T07:59:16;18.02;;;7.38;;
60038;SDS011;45916;52.734;6.544;2023-12-20T08:01:42;19.23;;;6.35;;
60038;SDS011;45916;52.734;6.544;2023-12-20T08:04:08;17.77;;;5.38;;
60038;SDS011;45916;52.734;6.544;2023-12-20T08:06:33;17.73;;;6.10;;
60038;SDS011;45916;52.734;6.544;2023-12-20T08:08:59;19.75;;;5.03;;
60038;SDS011;45916;52.734;6.544;2023-12-20T08:11:25;18.75;;;6.25;;
60038;SDS011;45916;52.734;6.544;2023-12-20T08:13:51;19.90;;;6.40;;
60038;SDS011;45916;52.734;6.544;2023-12-20T08:16:17;17.55;;;5.45;;
60038;SDS011;45916;52.734;6.544;2023-12-20T08:18:43;20.38;;;6.10;;
60038;SDS011;45916;52.734;6.544;2023-12-20T08:21:09;13.80;;;6.32;;
60038;SDS011;45916;52.734;6.544;2023-12-20T08:23:35;22.60;;;8.75;;
60038;SDS011;45916;52.734;6.544;2023-12-20T08:26:05;16.10;;;6.78;;
60038;SDS011;45916;52.734;6.544;2023-12-20T08:28:33;23.58;;;7.20;;
60038;SDS011;45916;52.734;6.544;2023-12-20T08:30:59;26.15;;;6.97;;
60038;SDS011;45916;52.734;6.544;2023-12-20T08:33:26;18.00;;;5.32;;
60038;SDS011;45916;52.734;6.544;2023-12-20T08:35:52;19.38;;;6.10;;
60038;SDS011;45916;52.734;6.544;2023-12-20T08:38:18;18.90;;;6.18;;
60038;SDS011;45916;52.734;6.544;2023-12-20T08:40:47;19.17;;;6.47;;
60038;SDS011;45916;52.734;6.544;2023-12-20T08:43:16;18.50;;;5.00;;
60038;SDS011;45916;52.734;6.544;2023-12-20T08:45:43;18.85;;;6.45;;
60038;SDS011;45916;52.734;6.544;2023-12-20T08:48:09;18.20;;;6.00;;
60038;SDS011;45916;52.734;6.544;2023-12-20T08:50:35;14.02;;;5.68;;
60038;SDS011;45916;52.734;6.544;2023-12-20T08:53:02;21.10;;;5.32;;
60038;SDS011;45916;52.734;6.544;2023-12-20T08:55:27;23.50;;;5.95;;
60038;SDS011;45916;52.734;6.544;2023-12-20T08:57:56;22.25;;;6.13;;
60038;SDS011;45916;52.734;6.544;2023-12-20T09:00:22;18.38;;;6.22;;
60038;SDS011;45916;52.734;6.544;2023-12-20T09:02:49;18.27;;;6.82;;
60038;SDS011;45916;52.734;6.544;2023-12-20T09:05:17;17.92;;;5.97;;
60038;SDS011;45916;52.734;6.544;2023-12-20T09:07:43;22.83;;;6.85;;
60038;SDS011;45916;52.734;6.544;2023-12-20T09:10:12;15.80;;;5.65;;
60038;SDS011;45916;52.734;6.544;2023-12-20T09:12:37;16.85;;;5.65;;
60038;SDS011;45916;52.734;6.544;2023-12-20T09:15:06;17.75;;;5.47;;
60038;SDS011;45916;52.734;6.544;2023-12-20T09:17:32;16.98;;;7.28;;
60038;SDS011;45916;52.734;6.544;2023-12-20T09:19:57;23.38;;;6.10;;
60038;SDS011;45916;52.734;6.544;2023-12-20T09:22:27;21.58;;;6.13;;
60038;SDS011;45916;52.734;6.544;2023-12-20T09:24:54;20.98;;;5.40;;
60038;SDS011;45916;52.734;6.544;2023-12-20T09:27:23;20.95;;;6.97;;
60038;SDS011;45916;52.734;6.544;2023-12-20T09:29:49;14.52;;;5.63;;
60038;SDS011;45916;52.734;6.544;2023-12-20T09:32:15;15.95;;;5.60;;
60038;SDS011;45916;52.734;6.544;2023-12-20T09:34:41;19.20;;;5.50;;
60038;SDS011;45916;52.734;6.544;2023-12-20T09:37:10;16.20;;;6.43;;
60038;SDS011;45916;52.734;6.544;2023-12-20T09:39:35;19.02;;;5.53;;
60038;SDS011;45916;52.734;6.544;2023-12-20T09:42:03;20.80;;;5.88;;
60038;SDS011;45916;52.734;6.544;2023-12-20T09:44:31;18.02;;;6.10;;
60038;SDS011;45916;52.734;6.544;2023-12-20T09:47:01;18.50;;;5.72;;
60038;SDS011;45916;52.734;6.544;2023-12-20T09:49:28;19.17;;;5.93;;
60038;SDS011;45916;52.734;6.544;2023-12-20T09:51:55;16.30;;;5.10;;
60038;SDS011;45916;52.734;6.544;2023-12-20T09:54:25;19.92;;;5.55;;
60038;SDS011;45916;52.734;6.544;2023-12-20T09:56:53;15.95;;;5.15;;
60038;SDS011;45916;52.734;6.544;2023-12-20T09:59:19;15.00;;;4.85;;
60038;SDS011;45916;52.734;6.544;2023-12-20T10:01:49;19.58;;;5.68;;
60038;SDS011;45916;52.734;6.544;2023-12-20T10:04:16;17.30;;;6.50;;
60038;SDS011;45916;52.734;6.544;2023-12-20T10:06:42;17.10;;;4.95;;
60038;SDS011;45916;52.734;6.544;2023-12-20T10:09:09;9.98;;;2.83;;
60038;SDS011;45916;52.734;6.544;2023-12-20T10:11:39;11.68;;;3.70;;
60038;SDS011;45916;52.734;6.544;2023-12-20T10:14:05;13.50;;;2.97;;
60038;SDS011;45916;52.734;6.544;2023-12-20T10:16:33;12.43;;;3.10;;
60038;SDS011;45916;52.734;6.544;2023-12-20T10:18:59;12.48;;;3.20;;
60038;SDS011;45916;52.734;6.544;2023-12-20T10:21:32;10.55;;;3.40;;
60038;SDS011;45916;52.734;6.544;2023-12-20T10:23:58;11.95;;;4.70;;
60038;SDS011;45916;52.734;6.544;2023-12-20T10:26:25;10.23;;;2.72;;
60038;SDS011;45916;52.734;6.544;2023-12-20T10:28:55;9.52;;;2.17;;
60038;SDS011;45916;52.734;6.544;2023-12-20T10:33:57;11.75;;;2.83;;
60038;SDS011;45916;52.734;6.544;2023-12-20T10:36:25;11.43;;;3.30;;
60038;SDS011;45916;52.734;6.544;2023-12-20T10:38:52;12.93;;;3.13;;
60038;SDS011;45916;52.734;6.544;2023-12-20T10:41:24;9.90;;;3.60;;
60038;SDS011;45916;52.734;6.544;2023-12-20T10:44:02;10.63;;;3.13;;
60038;SDS011;45916;52.734;6.544;2023-12-20T10:46:30;8.23;;;2.55;;
60038;SDS011;45916;52.734;6.544;2023-12-20T10:48:59;7.90;;;2.55;;
60038;SDS011;45916;52.734;6.544;2023-12-20T10:51:29;9.27;;;2.42;;
60038;SDS011;45916;52.734;6.544;2023-12-20T10:53:56;7.33;;;2.30;;
60038;SDS011;45916;52.734;6.544;2023-12-20T10:56:22;7.20;;;2.13;;
60038;SDS011;45916;52.734;6.544;2023-12-20T10:58:51;10.32;;;3.03;;
60038;SDS011;45916;52.734;6.544;2023-12-20T11:01:18;9.02;;;2.10;;
60038;SDS011;45916;52.734;6.544;2023-12-20T11:03:51;9.43;;;2.57;;
60038;SDS011;45916;52.734;6.544;2023-12-20T11:06:26;10.02;;;2.63;;
60038;SDS011;45916;52.734;6.544;2023-12-20T11:09:06;5.63;;;2.40;;
60038;SDS011;45916;52.734;6.544;2023-12-20T11:14:42;8.40;;;1.88;;
60038;SDS011;45916;52.734;6.544;2023-12-20T11:17:12;9.90;;;2.50;;
60038;SDS011;45916;52.734;6.544;2023-12-20T11:22:24;9.15;;;2.63;;
60038;SDS011;45916;52.734;6.544;2023-12-20T11:24:51;6.82;;;1.95;;
60038;SDS011;45916;52.734;6.544;2023-12-20T11:27:23;8.55;;;2.15;;
60038;SDS011;45916;52.734;6.544;2023-12-20T11:29:56;8.95;;;2.50;;
60038;SDS011;45916;52.734;6.544;2023-12-20T11:32:31;12.25;;;2.33;;
60038;SDS011;45916;52.734;6.544;2023-12-20T11:34:59;9.02;;;2.25;;
60038;SDS011;45916;52.734;6.544;2023-12-20T11:37:28;8.30;;;2.30;;
60038;SDS011;45916;52.734;6.544;2023-12-20T11:40:04;8.52;;;2.92;;
60038;SDS011;45916;52.734;6.544;2023-12-20T11:42:33;9.48;;;2.95;;
60038;SDS011;45916;52.734;6.544;2023-12-20T11:45:02;11.88;;;3.05;;
60038;SDS011;45916;52.734;6.544;2023-12-20T11:47:29;9.95;;;3.13;;
60038;SDS011;45916;52.734;6.544;2023-12-20T11:49:56;12.52;;;2.58;;
60038;SDS011;45916;52.734;6.544;2023-12-20T11:52:22;13.32;;;3.55;;
60038;SDS011;45916;52.734;6.544;2023-12-20T11:54:48;10.52;;;2.28;;
60038;SDS011;45916;52.734;6.544;2023-12-20T11:57:16;12.70;;;3.53;;
60038;SDS011;45916;52.734;6.544;2023-12-20T11:59:42;12.80;;;3.10;;
60038;SDS011;45916;52.734;6.544;2023-12-20T12:02:14;12.30;;;3.65;;
60038;SDS011;45916;52.734;6.544;2023-12-20T12:04:43;8.88;;;3.20;;
60038;SDS011;45916;52.734;6.544;2023-12-20T12:07:13;7.65;;;2.30;;
60038;SDS011;45916;52.734;6.544;2023-12-20T12:09:39;10.20;;;2.75;;
60038;SDS011;45916;52.734;6.544;2023-12-20T12:12:05;9.90;;;3.08;;
60038;SDS011;45916;52.734;6.544;2023-12-20T12:14:31;9.02;;;2.45;;
60038;SDS011;45916;52.734;6.544;2023-12-20T12:16:57;10.13;;;2.65;;
60038;SDS011;45916;52.734;6.544;2023-12-20T12:19:24;9.27;;;2.53;;
60038;SDS011;45916;52.734;6.544;2023-12-20T12:21:51;11.95;;;2.80;;
60038;SDS011;45916;52.734;6.544;2023-12-20T12:24:31;9.50;;;2.22;;
60038;SDS011;45916;52.734;6.544;2023-12-20T12:26:57;9.13;;;2.38;;
60038;SDS011;45916;52.734;6.544;2023-12-20T12:29:23;8.85;;;2.15;;
60038;SDS011;45916;52.734;6.544;2023-12-20T12:31:50;13.75;;;3.05;;
60038;SDS011;45916;52.734;6.544;2023-12-20T12:34:17;10.98;;;2.88;;
60038;SDS011;45916;52.734;6.544;2023-12-20T12:36:43;7.95;;;2.28;;
60038;SDS011;45916;52.734;6.544;2023-12-20T12:39:13;9.27;;;2.38;;
60038;SDS011;45916;52.734;6.544;2023-12-20T12:41:42;9.73;;;2.40;;
60038;SDS011;45916;52.734;6.544;2023-12-20T12:44:08;8.00;;;2.50;;
60038;SDS011;45916;52.734;6.544;2023-12-20T12:46:34;12.00;;;2.17;;
60038;SDS011;45916;52.734;6.544;2023-12-20T12:49:01;9.88;;;2.45;;
60038;SDS011;45916;52.734;6.544;2023-12-20T12:51:27;12.13;;;2.72;;
60038;SDS011;45916;52.734;6.544;2023-12-20T12:53:53;12.07;;;3.03;;
60038;SDS011;45916;52.734;6.544;2023-12-20T12:56:18;8.02;;;2.08;;
60038;SDS011;45916;52.734;6.544;2023-12-20T12:58:44;8.25;;;2.92;;
60038;SDS011;45916;52.734;6.544;2023-12-20T13:01:11;12.43;;;2.65;;
60038;SDS011;45916;52.734;6.544;2023-12-20T13:03:38;10.68;;;2.78;;
60038;SDS011;45916;52.734;6.544;2023-12-20T13:06:11;9.57;;;2.95;;
60038;SDS011;45916;52.734;6.544;2023-12-20T13:08:37;10.27;;;2.55;;
60038;SDS011;45916;52.734;6.544;2023-12-20T13:15:04;9.02;;;3.25;;
60038;SDS011;45916;52.734;6.544;2023-12-20T13:22:38;9.45;;;2.20;;
60038;SDS011;45916;52.734;6.544;2023-12-20T13:40:07;7.78;;;2.70;;
60038;SDS011;45916;52.734;6.544;2023-12-20T13:42:36;10.75;;;2.67;;
60038;SDS011;45916;52.734;6.544;2023-12-20T13:45:02;7.15;;;2.72;;
60038;SDS011;45916;52.734;6.544;2023-12-20T13:47:40;11.52;;;2.83;;
60038;SDS011;45916;52.734;6.544;2023-12-20T13:50:18;8.65;;;2.85;;
60038;SDS011;45916;52.734;6.544;2023-12-20T13:52:44;11.02;;;2.53;;
60038;SDS011;45916;52.734;6.544;2023-12-20T14:02:29;8.55;;;2.40;;
60038;SDS011;45916;52.734;6.544;2023-12-20T14:04:57;8.80;;;2.55;;
60038;SDS011;45916;52.734;6.544;2023-12-20T14:07:29;10.48;;;3.72;;
60038;SDS011;45916;52.734;6.544;2023-12-20T14:09:58;13.23;;;3.90;;
60038;SDS011;45916;52.734;6.544;2023-12-20T14:12:24;14.95;;;4.55;;
60038;SDS011;45916;52.734;6.544;2023-12-20T14:14:50;9.90;;;3.22;;
60038;SDS011;45916;52.734;6.544;2023-12-20T14:17:17;11.77;;;3.17;;
60038;SDS011;45916;52.734;6.544;2023-12-20T14:19:43;12.63;;;4.10;;
60038;SDS011;45916;52.734;6.544;2023-12-20T14:22:09;10.50;;;3.13;;
60038;SDS011;45916;52.734;6.544;2023-12-20T14:24:35;8.15;;;2.65;;
60038;SDS011;45916;52.734;6.544;2023-12-20T14:27:01;8.05;;;2.30;;
60038;SDS011;45916;52.734;6.544;2023-12-20T14:29:27;7.97;;;2.08;;
60038;SDS011;45916;52.734;6.544;2023-12-20T14:31:53;6.35;;;2.00;;
60038;SDS011;45916;52.734;6.544;2023-12-20T14:34:18;7.68;;;2.17;;
60038;SDS011;45916;52.734;6.544;2023-12-20T14:36:44;11.30;;;2.90;;
60038;SDS011;45916;52.734;6.544;2023-12-20T14:39:10;9.00;;;3.05;;
60038;SDS011;45916;52.734;6.544;2023-12-20T14:41:38;11.60;;;3.45;;
60038;SDS011;45916;52.734;6.544;2023-12-20T14:44:05;12.15;;;3.92;;
60038;SDS011;45916;52.734;6.544;2023-12-20T14:46:31;10.23;;;3.88;;
60038;SDS011;45916;52.734;6.544;2023-12-20T14:49:00;11.60;;;4.20;;
60038;SDS011;45916;52.734;6.544;2023-12-20T14:51:29;10.13;;;3.58;;
60038;SDS011;45916;52.734;6.544;2023-12-20T14:53:55;9.20;;;3.88;;
60038;SDS011;45916;52.734;6.544;2023-12-20T14:56:21;10.75;;;4.85;;
60038;SDS011;45916;52.734;6.544;2023-12-20T14:58:49;14.15;;;4.25;;
60038;SDS011;45916;52.734;6.544;2023-12-20T15:01:14;15.02;;;6.53;;
60038;SDS011;45916;52.734;6.544;2023-12-20T15:03:40;14.52;;;4.75;;
60038;SDS011;45916;52.734;6.544;2023-12-20T15:06:06;15.80;;;4.70;;
60038;SDS011;45916;52.734;6.544;2023-12-20T15:08:32;14.25;;;5.53;;
60038;SDS011;45916;52.734;6.544;2023-12-20T15:10:58;13.65;;;5.10;;
60038;SDS011;45916;52.734;6.544;2023-12-20T15:13:24;18.02;;;6.03;;
60038;SDS011;45916;52.734;6.544;2023-12-20T15:15:50;17.23;;;5.97;;